createdAt,value
2023-01-08T00:01:40.585Z,102979.56
2023-01-08T00:04:09.240Z,102983.88
2023-01-08T00:06:39.672Z,102983.03
2023-01-08T00:09:08.066Z,102983.03
2023-01-08T00:11:37.437Z,102972.53
2023-01-08T00:14:06.186Z,102989.03
2023-01-08T00:16:36.084Z,102981.22
2023-01-08T00:19:05.099Z,102977.72
2023-01-08T00:21:33.974Z,102979.47
2023-01-08T00:24:03.181Z,102986.41
2023-01-08T00:26:33.197Z,102982.06
2023-01-08T00:29:00.903Z,102977.69
2023-01-08T00:31:29.757Z,102982.00
2023-01-08T00:33:58.038Z,102980.28
2023-01-08T00:36:26.808Z,102980.25
2023-01-08T00:38:55.879Z,102981.97
2023-01-08T00:41:24.079Z,102988.13
2023-01-08T00:43:53.740Z,102981.13
2023-01-08T00:46:22.191Z,102978.63
2023-01-08T00:48:51.326Z,102979.50
2023-01-08T00:51:19.584Z,102969.97
2023-01-08T00:53:48.036Z,102973.44
2023-01-08T00:56:16.744Z,102976.88
2023-01-08T00:58:45.003Z,102974.25
2023-01-08T01:01:15.434Z,102969.06
2023-01-08T01:03:44.202Z,102981.22
2023-01-08T01:06:14.251Z,102984.66
2023-01-08T01:08:44.611Z,102988.19
2023-01-08T01:11:24.371Z,102991.69
2023-01-08T01:13:56.961Z,102988.22
2023-01-08T01:16:27.294Z,102983.00
2023-01-08T01:18:58.459Z,102982.97
2023-01-08T01:21:31.875Z,102983.00
2023-01-08T01:24:04.474Z,102980.38
2023-01-08T01:26:35.159Z,102979.47
2023-01-08T01:29:03.019Z,102987.28
2023-01-08T01:31:33.110Z,102979.50
2023-01-08T01:34:01.286Z,102979.50
2023-01-08T01:36:30.267Z,102981.25
2023-01-08T01:38:59.474Z,102981.25
2023-01-08T01:41:32.268Z,102981.19
2023-01-08T01:44:40.759Z,102979.53
2023-01-08T01:47:42.204Z,102976.84
2023-01-08T01:50:32.322Z,102976.00
2023-01-08T01:53:13.242Z,102973.44
2023-01-08T01:55:44.541Z,102979.56
2023-01-08T01:58:22.825Z,102979.59
2023-01-08T02:00:53.399Z,102978.66
2023-01-08T02:03:24.306Z,102978.69
2023-01-08T02:06:18.875Z,102970.91
2023-01-08T02:09:20.735Z,102975.22
2023-01-08T02:12:26.669Z,102990.84
2023-01-08T02:15:32.589Z,102988.19
2023-01-08T02:18:20.473Z,102986.44
2023-01-08T02:20:56.897Z,102990.72
2023-01-08T02:24:11.569Z,102999.41
2023-01-08T02:26:40.580Z,102994.31
2023-01-08T02:29:17.323Z,102981.25
2023-01-08T02:31:47.052Z,102990.81
2023-01-08T02:34:15.153Z,102987.28
2023-01-08T02:36:53.291Z,102989.06
2023-01-08T02:39:42.378Z,102986.38
2023-01-08T02:42:18.681Z,102993.34
2023-01-08T02:45:16.786Z,102988.16
2023-01-08T02:48:04.897Z,102996.84
2023-01-08T02:50:53.932Z,102988.16
2023-01-08T02:53:43.290Z,102988.13
2023-01-08T02:56:16.737Z,102995.88
2023-01-08T02:58:48.239Z,103003.69
2023-01-08T03:01:19.073Z,102991.50
2023-01-08T03:03:55.079Z,102995.94
2023-01-08T03:06:26.699Z,102996.75
2023-01-08T03:08:55.295Z,102995.97
2023-01-08T03:11:26.900Z,103000.19
2023-01-08T03:14:02.733Z,102991.56
2023-01-08T03:16:41.672Z,102988.88
2023-01-08T03:19:32.731Z,102993.25
2023-01-08T03:22:03.716Z,102996.66
2023-01-08T03:24:35.429Z,102994.94
2023-01-08T03:27:07.983Z,102994.94
2023-01-08T03:29:38.586Z,103002.00
2023-01-08T03:32:13.913Z,103001.06
2023-01-08T03:34:45.997Z,103001.94
2023-01-08T03:37:15.946Z,103006.28
2023-01-08T03:40:01.214Z,102997.47
2023-01-08T03:42:32.739Z,102988.00
2023-01-08T03:45:01.844Z,102984.47
2023-01-08T03:47:33.275Z,102989.66
2023-01-08T03:50:03.487Z,102988.78
2023-01-08T03:52:35.703Z,102992.31
2023-01-08T03:55:05.317Z,102990.53
2023-01-08T03:57:34.363Z,102999.22
2023-01-08T04:00:04.382Z,103004.47
2023-01-08T04:02:33.693Z,103011.50
2023-01-08T04:05:02.794Z,103000.16
2023-01-08T04:07:31.967Z,103002.00
2023-01-08T04:10:01.008Z,103006.28
2023-01-08T04:12:29.108Z,103017.53
2023-01-08T04:14:58.213Z,103003.50
2023-01-08T04:17:28.577Z,102999.28
2023-01-08T04:19:57.332Z,102998.50
2023-01-08T04:22:25.132Z,103006.28
2023-01-08T04:24:54.542Z,103009.75
2023-01-08T04:27:22.098Z,103010.63
2023-01-08T04:29:50.832Z,103014.19
2023-01-08T04:32:19.780Z,103012.31
2023-01-08T04:34:49.080Z,103010.66
2023-01-08T04:37:17.086Z,103015.81
2023-01-08T04:39:45.929Z,103010.47
2023-01-08T04:42:14.954Z,103013.97
2023-01-08T04:44:44.358Z,103014.03
2023-01-08T04:47:13.142Z,103015.78
2023-01-08T04:49:41.071Z,103022.81
2023-01-08T04:52:10.164Z,103013.94
2023-01-08T04:54:38.971Z,103018.25
2023-01-08T04:57:08.324Z,103013.97
2023-01-08T04:59:37.013Z,103016.63
2023-01-08T05:02:06.233Z,103020.84
2023-01-08T05:04:36.162Z,103020.00
2023-01-08T05:07:07.182Z,103027.84
2023-01-08T05:09:36.276Z,103034.78
2023-01-08T05:12:05.218Z,103028.75
2023-01-08T05:14:39.084Z,103041.72
2023-01-08T05:17:08.034Z,103026.03
2023-01-08T05:19:38.409Z,103025.19
2023-01-08T05:22:07.138Z,103037.28
2023-01-08T05:24:37.954Z,103040.78
2023-01-08T05:27:06.055Z,103045.97
2023-01-08T05:29:34.942Z,103062.56
2023-01-08T05:32:03.748Z,103063.41
2023-01-08T05:34:31.970Z,103064.16
2023-01-08T05:36:59.960Z,103060.75
2023-01-08T05:39:28.603Z,103064.16
2023-01-08T05:41:56.969Z,103062.50
2023-01-08T05:44:24.964Z,103071.13
2023-01-08T05:46:58.651Z,103075.38
2023-01-08T05:49:28.439Z,103071.09
2023-01-08T05:51:57.541Z,103066.00
2023-01-08T05:54:28.159Z,103078.88
2023-01-08T05:56:57.778Z,103079.72
2023-01-08T05:59:26.966Z,103086.72
2023-01-08T06:01:55.097Z,103072.72
2023-01-08T06:04:24.148Z,103082.38
2023-01-08T06:06:51.982Z,103075.34
2023-01-08T06:09:21.044Z,103074.56
2023-01-08T06:11:49.972Z,103077.13
2023-01-08T06:14:18.058Z,103080.75
2023-01-08T06:16:47.101Z,103084.09
2023-01-08T06:19:16.231Z,103072.97
2023-01-08T06:21:45.291Z,103083.31
2023-01-08T06:24:14.265Z,103081.56
2023-01-08T06:26:42.006Z,103072.97
2023-01-08T06:29:10.943Z,103084.28
2023-01-08T06:31:39.054Z,103085.16
2023-01-08T06:34:08.141Z,103088.81
2023-01-08T06:36:36.981Z,103089.59
2023-01-08T06:39:07.305Z,103087.91
2023-01-08T06:41:35.455Z,103081.88
2023-01-08T06:44:07.613Z,103078.31
2023-01-08T06:46:40.976Z,103072.34
2023-01-08T06:49:09.843Z,103074.91
2023-01-08T06:51:41.317Z,103074.94
2023-01-08T06:54:09.159Z,103076.69
2023-01-08T06:56:52.541Z,103072.31
2023-01-08T06:59:23.045Z,103075.00
2023-01-08T07:01:52.106Z,103074.16
2023-01-08T07:04:20.580Z,103076.81
2023-01-08T07:06:49.525Z,103081.97
2023-01-08T07:09:18.648Z,103083.72
2023-01-08T07:11:46.955Z,103086.34
2023-01-08T07:14:16.236Z,103075.09
2023-01-08T07:16:45.159Z,103079.47
2023-01-08T07:19:13.982Z,103075.94
2023-01-08T07:21:43.103Z,103065.53
2023-01-08T07:24:11.215Z,103073.31
2023-01-08T07:26:40.633Z,103082.00
2023-01-08T07:29:09.278Z,103083.78
2023-01-08T07:31:38.909Z,103095.94
2023-01-08T07:34:07.059Z,103082.03
2023-01-08T07:36:35.021Z,103100.28
2023-01-08T07:39:04.041Z,103095.94
2023-01-08T07:41:34.033Z,103095.94
2023-01-08T07:44:03.345Z,103097.75
2023-01-08T07:46:32.718Z,103089.94
2023-01-08T07:49:01.030Z,103096.91
2023-01-08T07:51:30.138Z,103109.94
2023-01-08T07:53:58.035Z,103103.84
2023-01-08T07:56:26.993Z,103118.63
2023-01-08T07:58:55.126Z,103110.78
2023-01-08T08:01:26.756Z,103122.09
2023-01-08T08:03:54.995Z,103125.56
2023-01-08T08:06:24.178Z,103128.19
2023-01-08T08:08:53.595Z,103122.00
2023-01-08T08:11:21.956Z,103122.91
2023-01-08T08:13:53.001Z,103122.00
2023-01-08T08:16:22.069Z,103115.00
2023-01-08T08:18:50.779Z,103121.97
2023-01-08T08:21:18.943Z,103115.88
2023-01-08T08:23:50.075Z,103123.66
2023-01-08T08:26:19.913Z,103121.84
2023-01-08T08:28:48.013Z,103130.41
2023-01-08T08:31:17.159Z,103121.63
2023-01-08T08:33:46.590Z,103128.47
2023-01-08T08:36:15.022Z,103116.16
2023-01-08T08:38:44.676Z,103126.66
2023-01-08T08:41:12.997Z,103107.75
2023-01-08T08:43:42.365Z,103111.94
2023-01-08T08:46:09.934Z,103111.94
2023-01-08T08:48:41.184Z,103110.94
2023-01-08T08:51:09.089Z,103108.19
2023-01-08T08:53:42.628Z,103099.50
2023-01-08T08:56:10.893Z,103110.41
2023-01-08T10:41:44.136Z,103000.09
2023-01-08T10:44:19.390Z,103009.38
2023-01-08T10:46:52.596Z,103014.50
2023-01-08T10:49:32.526Z,103005.81
2023-01-08T10:52:01.736Z,103000.34
2023-01-08T10:54:35.381Z,103004.34
2023-01-08T10:57:23.820Z,103019.44
2023-01-08T10:59:52.719Z,103012.66
2023-01-08T11:02:39.366Z,103011.03
2023-01-08T11:05:11.652Z,103013.88
2023-01-08T11:07:41.794Z,103004.81
2023-01-08T11:10:26.471Z,103012.94
2023-01-08T11:13:04.815Z,103015.56
2023-01-08T11:15:42.261Z,103013.03
2023-01-08T11:18:26.042Z,103008.84
2023-01-08T11:21:06.556Z,103015.06
2023-01-08T11:23:35.336Z,103025.03
2023-01-08T11:26:11.395Z,103017.16
2023-01-08T11:29:18.189Z,103023.25
2023-01-08T11:32:10.733Z,103022.19
2023-01-08T11:35:33.788Z,103027.75
2023-01-08T11:38:05.833Z,103021.34
2023-01-08T11:40:55.730Z,103024.75
2023-01-08T11:43:42.227Z,103013.81
2023-01-08T11:46:38.515Z,103003.63
2023-01-08T11:49:43.886Z,103013.63
2023-01-08T11:52:33.489Z,103022.44
2023-01-08T11:55:39.112Z,103018.88
2023-01-08T11:58:12.780Z,103016.34
2023-01-08T12:00:50.400Z,103026.19
2023-01-08T12:03:38.754Z,103033.63
2023-01-08T12:06:38.420Z,103029.88
2023-01-08T12:09:40.500Z,103034.44
2023-01-08T12:12:41.168Z,103035.78
2023-01-08T12:15:48.657Z,103024.59
2023-01-08T12:18:54.709Z,103027.53
2023-01-08T12:21:34.207Z,103014.31
2023-01-08T12:24:15.751Z,103021.88
2023-01-08T12:27:07.880Z,103025.59
2023-01-08T12:29:49.335Z,103023.88
2023-01-08T12:32:42.726Z,103024.19
2023-01-08T12:35:41.865Z,103015.28
2023-01-08T12:38:36.803Z,103012.00
2023-01-08T12:41:12.485Z,103012.69
2023-01-08T12:44:04.632Z,103013.53
2023-01-08T12:46:35.361Z,103020.25
2023-01-08T12:49:06.683Z,103023.41
2023-01-08T12:51:54.733Z,103023.88
2023-01-08T12:54:54.485Z,103014.25
2023-01-08T12:57:35.032Z,103004.56
2023-01-08T13:00:17.901Z,103019.38
2023-01-08T13:03:04.975Z,103026.97
2023-01-08T13:05:37.901Z,103024.19
2023-01-08T13:08:28.699Z,103026.63
2023-01-08T13:10:58.023Z,103033.25
2023-01-08T13:13:46.157Z,103031.91
2023-01-08T13:16:22.610Z,103029.50
2023-01-08T13:19:02.882Z,103025.38
2023-01-08T13:21:44.160Z,103029.44
2023-01-08T13:24:40.000Z,103030.25
2023-01-08T13:27:20.713Z,103026.28
2023-01-08T13:29:51.945Z,103033.22
2023-01-08T13:32:38.413Z,103032.34
2023-01-08T13:35:31.684Z,103033.25
2023-01-08T13:38:20.242Z,103035.00
2023-01-08T13:40:50.662Z,103035.00
2023-01-08T13:43:30.577Z,103043.16
2023-01-08T13:45:58.419Z,103050.28
2023-01-08T13:48:31.260Z,103039.72
2023-01-08T13:51:00.554Z,103039.94
2023-01-08T13:53:31.096Z,103035.59
2023-01-08T13:56:03.022Z,103030.56
2023-01-08T13:58:51.920Z,103042.72
2023-01-08T14:01:22.639Z,103048.94
2023-01-08T14:03:51.776Z,103045.56
2023-01-08T14:06:27.667Z,103046.34
2023-01-08T14:08:56.801Z,103043.09
2023-01-08T14:11:30.223Z,103039.63
2023-01-08T14:13:58.699Z,103033.56
2023-01-08T14:16:28.697Z,103038.66
2023-01-08T14:19:01.515Z,103037.94
2023-01-08T14:21:30.405Z,103032.78
2023-01-08T14:23:58.921Z,103034.66
2023-01-08T14:26:42.833Z,103033.84
2023-01-08T14:29:15.341Z,103031.97
2023-01-08T14:31:50.457Z,103030.34
2023-01-08T14:34:19.853Z,103025.22
2023-01-08T14:36:51.893Z,103026.00
2023-01-08T14:39:38.752Z,103024.34
2023-01-08T14:42:41.806Z,103025.34
2023-01-08T14:45:21.706Z,103024.44
2023-01-08T14:47:54.567Z,103030.72
2023-01-08T14:50:27.221Z,103032.44
2023-01-08T14:53:01.280Z,103024.72
2023-01-08T14:55:29.802Z,103027.31
2023-01-08T14:57:59.921Z,103027.31
2023-01-08T15:00:32.220Z,103027.31
2023-01-08T15:03:00.405Z,103029.06
2023-01-08T15:05:31.298Z,103018.38
2023-01-08T15:08:25.369Z,103027.25
2023-01-08T15:11:25.314Z,103023.81
2023-01-08T15:13:57.980Z,103027.25
2023-01-08T15:16:34.058Z,103022.97
2023-01-08T15:19:05.562Z,103028.31
2023-01-08T15:21:35.547Z,103031.03
2023-01-08T15:24:07.185Z,103045.78
2023-01-08T15:26:42.885Z,103041.34
2023-01-08T15:29:21.180Z,103045.63
2023-01-08T15:31:50.292Z,103036.22
2023-01-08T15:34:21.218Z,103048.38
2023-01-08T15:36:50.608Z,103036.22
2023-01-08T15:39:19.277Z,103040.78
2023-01-08T15:42:06.887Z,103027.59
2023-01-08T15:44:35.358Z,103027.63
2023-01-08T15:47:04.576Z,103020.81
2023-01-08T15:49:35.324Z,103036.56
2023-01-08T15:52:04.452Z,103037.34
2023-01-08T15:54:33.422Z,103033.16
2023-01-08T15:57:01.366Z,103034.84
2023-01-08T15:59:31.795Z,103034.03
2023-01-08T16:02:01.499Z,103034.03
2023-01-08T16:04:31.319Z,103035.84
2023-01-08T16:07:02.853Z,103027.94
2023-01-08T16:09:31.957Z,103021.00
2023-01-08T16:12:00.377Z,103026.22
2023-01-08T16:14:34.509Z,103028.84
2023-01-08T16:17:04.890Z,103033.25
2023-01-08T16:19:35.907Z,103033.28
2023-01-08T16:22:06.345Z,103036.72
2023-01-08T19:43:12.333Z,103069.78
2023-01-08T19:45:44.210Z,103073.28
2023-01-08T19:48:13.581Z,103067.22
2023-01-08T19:50:43.825Z,103063.72
2023-01-08T19:53:14.541Z,103066.31
2023-01-08T19:55:42.512Z,103069.72
2023-01-08T19:58:11.333Z,103078.34
2023-01-08T20:00:42.423Z,103080.94
2023-01-08T20:03:10.957Z,103085.25
2023-01-08T20:05:42.936Z,103097.50
2023-01-08T20:08:11.770Z,103104.41
2023-01-08T20:10:40.783Z,103107.91
2023-01-08T20:13:08.811Z,103109.66
2023-01-08T20:15:38.189Z,103100.91
2023-01-08T20:18:07.049Z,103109.50
2023-01-08T20:20:35.749Z,103115.59
2023-01-08T20:23:03.796Z,103113.00
2023-01-08T20:25:34.850Z,103112.09
2023-01-08T20:28:02.713Z,103125.22
2023-01-08T20:30:31.466Z,103130.38
2023-01-08T20:33:03.378Z,103127.78
2023-01-08T20:35:37.126Z,103135.56
2023-01-08T20:38:04.737Z,103138.22
2023-01-08T20:40:33.050Z,103132.19
2023-01-08T20:43:01.772Z,103128.69
2023-01-08T20:45:31.034Z,103134.00
2023-01-08T20:47:58.736Z,103136.50
2023-01-08T20:50:27.605Z,103137.31
2023-01-08T20:52:55.801Z,103140.97
2023-01-08T20:55:24.657Z,103137.34
2023-01-08T20:57:52.721Z,103132.97
2023-01-08T21:00:22.159Z,103138.22
2023-01-08T21:02:50.920Z,103145.13
2023-01-08T21:05:18.810Z,103146.91
2023-01-08T21:07:46.821Z,103146.78
2023-01-08T21:10:16.204Z,103146.06
2023-01-08T21:12:44.791Z,103152.94
2023-01-08T21:15:13.677Z,103157.38
2023-01-08T21:17:42.708Z,103153.09
2023-01-08T21:20:12.278Z,103149.53
2023-01-08T21:22:41.305Z,103149.53
2023-01-08T21:25:12.002Z,103139.84
2023-01-08T21:27:39.679Z,103142.41
2023-01-08T21:30:09.427Z,103140.69
2023-01-08T21:32:37.763Z,103133.63
2023-01-08T21:35:05.883Z,103132.81
2023-01-08T21:37:34.772Z,103126.69
2023-01-08T21:40:03.001Z,103125.81
2023-01-08T21:42:50.266Z,103132.75
2023-01-08T21:45:26.588Z,103126.63
2023-01-08T21:47:58.404Z,103123.22
2023-01-08T21:50:28.300Z,103121.41
2023-01-08T21:53:15.313Z,103113.59
2023-01-08T21:55:44.790Z,103111.97
2023-01-08T21:58:14.682Z,103119.72
2023-01-08T22:00:43.700Z,103117.94
2023-01-08T22:03:11.728Z,103114.53
2023-01-08T22:05:42.374Z,103119.75
2023-01-08T22:08:15.520Z,103118.16
2023-01-08T22:10:43.692Z,103115.41
2023-01-08T22:13:12.796Z,103119.75
2023-01-08T22:15:40.795Z,103117.19
2023-01-08T22:18:29.038Z,103112.81
2023-01-08T22:21:07.103Z,103123.22
2023-01-08T22:23:35.459Z,103109.31
2023-01-08T22:26:10.562Z,103112.72
2023-01-08T22:28:39.949Z,103114.50
2023-01-08T22:31:11.621Z,103119.72
2023-01-08T22:33:40.576Z,103116.19
2023-01-08T22:36:12.997Z,103114.47
2023-01-08T22:38:41.858Z,103106.69
2023-01-08T22:41:21.426Z,103107.53
2023-01-08T22:43:56.877Z,103113.59
2023-01-08T22:46:26.181Z,103104.09
2023-01-08T22:48:55.078Z,103106.69
2023-01-08T22:51:27.380Z,103090.28
2023-01-08T22:54:02.440Z,103090.06
2023-01-08T22:56:30.710Z,103103.16
2023-01-08T22:58:59.658Z,103106.53
2023-01-08T23:01:27.897Z,103093.56
2023-01-08T23:03:59.665Z,103095.28
2023-01-08T23:06:30.288Z,103104.88
2023-01-08T23:08:59.462Z,103101.38
2023-01-08T23:11:30.705Z,103104.00
2023-01-08T23:14:00.778Z,103098.94
2023-01-08T23:16:32.822Z,103098.84
2023-01-08T23:19:00.919Z,103090.13
2023-01-08T23:21:30.172Z,103095.38
2023-01-08T23:23:58.676Z,103097.16
2023-01-08T23:26:29.728Z,103098.06
2023-01-08T23:29:01.329Z,103097.06
2023-01-08T23:31:31.563Z,103083.09
2023-01-08T23:34:01.608Z,103091.94
2023-01-08T23:36:29.679Z,103091.88
2023-01-08T23:38:59.433Z,103086.59
2023-01-08T23:41:34.840Z,103084.06
2023-01-08T23:44:11.159Z,103085.81
2023-01-08T23:46:41.279Z,103097.09
2023-01-08T23:49:10.469Z,103082.38
2023-01-08T23:51:42.420Z,103094.50
2023-01-08T23:54:12.155Z,103088.44
2023-01-08T23:56:41.273Z,103090.16
2023-01-08T23:59:10.920Z,103095.38
